createdAt,value
2023-04-17T16:01:21.158Z,16.80
2023-04-17T16:06:27.667Z,16.50
2023-04-17T16:11:33.247Z,16.40
2023-04-17T16:16:41.363Z,16.20
2023-04-17T16:21:46.609Z,16.20
2023-04-17T16:26:57.468Z,16.00
2023-04-17T16:32:05.668Z,15.70
2023-04-17T16:37:11.184Z,15.50
2023-04-17T16:42:16.459Z,15.30
2023-04-17T16:47:24.578Z,15.10
2023-04-17T16:52:30.026Z,15.00
2023-04-17T16:57:38.328Z,15.10
2023-04-17T17:02:46.503Z,15.30
2023-04-17T17:07:51.950Z,15.40
2023-04-17T17:12:57.123Z,15.40
2023-04-17T17:18:05.079Z,15.50
2023-04-17T17:23:10.626Z,15.50
2023-04-17T17:28:15.987Z,15.50
2023-04-17T17:33:24.070Z,15.60
2023-04-17T17:38:32.832Z,15.60
2023-04-17T17:43:38.107Z,15.50
2023-04-17T17:48:46.263Z,15.40
2023-04-17T17:53:51.682Z,15.30
2023-04-17T17:58:56.988Z,15.20
2023-04-17T18:04:05.160Z,15.20
2023-04-17T18:09:10.647Z,15.20
2023-04-17T18:14:16.042Z,15.10
2023-04-17T18:19:24.124Z,15.10
2023-04-17T18:24:29.376Z,15.00
2023-04-17T18:29:34.933Z,14.90
2023-04-17T18:34:44.052Z,14.70
2023-04-17T18:39:49.409Z,14.50
2023-04-17T18:44:54.987Z,14.20
2023-04-17T18:50:03.979Z,14.00
2023-04-17T18:55:10.631Z,13.90
2023-04-17T19:00:16.930Z,13.70
2023-04-17T19:05:26.142Z,13.50
2023-04-17T19:10:31.487Z,13.30
2023-04-17T19:15:36.837Z,13.20
2023-04-17T19:20:44.844Z,13.10
2023-04-17T19:25:55.339Z,13.00
2023-04-17T19:31:01.103Z,12.80
2023-04-17T19:36:09.158Z,12.70
2023-04-17T19:41:17.669Z,12.50
2023-04-17T19:46:23.755Z,12.40
2023-04-17T19:51:31.716Z,12.20
2023-04-17T19:56:37.184Z,12.10
2023-04-17T20:01:43.753Z,12.00
2023-04-17T20:06:52.018Z,11.80
2023-04-17T20:11:57.461Z,11.70
2023-04-17T20:17:02.859Z,11.50
2023-04-17T20:22:11.556Z,11.40
2023-04-17T20:27:17.005Z,11.30
2023-04-17T20:32:23.390Z,11.20
2023-04-17T20:37:31.640Z,11.20
2023-04-17T20:42:36.957Z,11.20
2023-04-17T20:47:55.321Z,11.20
2023-04-17T20:53:04.811Z,11.20
2023-04-17T20:58:10.159Z,11.40
2023-04-17T21:03:15.608Z,11.50
2023-04-17T21:08:23.792Z,11.60
2023-04-17T21:13:29.229Z,11.70
2023-04-17T21:18:34.505Z,11.70
2023-04-17T21:23:42.389Z,11.70
2023-04-17T21:28:47.764Z,11.70
2023-04-17T21:33:53.468Z,11.70
2023-04-17T21:39:01.236Z,11.70
2023-04-17T21:44:06.536Z,11.70
2023-04-17T21:49:11.945Z,11.60
2023-04-17T21:54:19.762Z,11.50
2023-04-17T21:59:25.142Z,11.50
2023-04-17T22:04:30.466Z,11.40
2023-04-17T22:09:38.312Z,11.50
2023-04-17T22:14:43.608Z,11.40
2023-04-17T22:19:48.862Z,11.40
2023-04-17T22:24:56.574Z,11.30
2023-04-17T22:30:01.974Z,11.30
2023-04-17T22:35:08.240Z,11.20
2023-04-17T22:40:16.983Z,11.10
